createdAt,value
2022-12-23T00:01:16.200Z,4.69
2022-12-23T00:04:19.114Z,4.68
2022-12-23T00:07:21.818Z,4.72
2022-12-23T00:10:25.312Z,4.94
2022-12-23T00:13:46.358Z,4.92
2022-12-23T00:16:50.864Z,4.80
2022-12-23T00:19:53.768Z,4.82
2022-12-23T00:23:05.764Z,4.86
2022-12-23T00:26:14.112Z,4.86
2022-12-23T00:29:16.998Z,4.84
2022-12-23T00:32:19.665Z,4.87
2022-12-23T00:35:22.563Z,4.72
2022-12-23T00:38:44.457Z,4.72
2022-12-23T00:42:05.933Z,4.65
2022-12-23T00:45:17.914Z,4.66
2022-12-23T00:48:39.059Z,4.71
2022-12-23T00:51:41.794Z,4.73
2022-12-23T00:54:44.675Z,4.79
2022-12-23T00:57:47.328Z,4.80
2022-12-23T01:01:08.886Z,4.78
2022-12-23T01:04:32.072Z,4.83
2022-12-23T01:07:35.079Z,4.81
2022-12-23T01:10:48.261Z,4.73
2022-12-23T01:13:51.324Z,4.84
2022-12-23T01:16:54.866Z,4.83
2022-12-23T01:19:57.826Z,4.76
2022-12-23T01:23:00.449Z,4.77
2022-12-23T01:26:06.427Z,4.87
2022-12-23T01:29:09.241Z,4.87
2022-12-23T01:32:12.224Z,4.83
2022-12-23T01:35:15.101Z,4.81
2022-12-23T01:38:18.043Z,4.72
2022-12-23T01:41:43.197Z,4.80
2022-12-23T01:45:03.443Z,4.75
2022-12-23T01:48:21.475Z,4.73
2022-12-23T01:51:28.652Z,4.69
2022-12-23T01:54:31.742Z,4.64
2022-12-23T01:57:36.992Z,4.67
2022-12-23T02:01:00.822Z,4.72
2022-12-23T02:04:11.237Z,4.74
2022-12-23T02:07:33.001Z,4.77
2022-12-23T02:11:10.917Z,4.69
2022-12-23T02:14:35.202Z,4.71
2022-12-23T02:18:15.368Z,4.77
2022-12-23T02:21:48.320Z,4.75
2022-12-23T02:25:07.501Z,4.81
2022-12-23T02:28:29.048Z,4.77
2022-12-23T02:31:53.648Z,4.71
2022-12-23T02:35:02.115Z,4.67
2022-12-23T02:38:27.765Z,4.75
2022-12-23T02:41:59.794Z,4.68
2022-12-23T02:45:11.607Z,4.60
2022-12-23T02:48:21.113Z,4.60
2022-12-23T02:51:31.052Z,4.67
2022-12-23T02:54:40.422Z,4.67
2022-12-23T02:57:47.838Z,4.72
2022-12-23T03:00:51.551Z,4.64
2022-12-23T03:03:55.030Z,4.68
2022-12-23T03:07:04.317Z,4.73
2022-12-23T03:10:27.626Z,4.62
2022-12-23T03:13:55.715Z,4.78
2022-12-23T03:17:19.892Z,4.68
2022-12-23T03:20:29.005Z,4.65
2022-12-23T03:23:42.198Z,4.65
2022-12-23T03:27:06.338Z,4.63
2022-12-23T03:30:15.375Z,4.64
2022-12-23T03:33:27.667Z,4.64
2022-12-23T03:36:47.771Z,4.62
2022-12-23T03:39:58.858Z,4.60
2022-12-23T03:43:06.730Z,4.56
2022-12-23T03:46:16.213Z,4.60
2022-12-23T03:49:26.068Z,4.62
2022-12-23T03:52:46.614Z,4.61
2022-12-23T03:55:56.021Z,4.62
2022-12-23T03:59:03.173Z,4.55
2022-12-23T04:02:13.526Z,4.57
2022-12-23T04:05:27.947Z,4.61
2022-12-23T04:08:34.917Z,4.58
2022-12-23T04:11:38.272Z,4.61
2022-12-23T04:14:48.067Z,4.52
2022-12-23T04:17:52.382Z,4.49
2022-12-23T04:20:59.885Z,4.48
2022-12-23T04:24:02.859Z,4.60
2022-12-23T04:27:06.846Z,4.47
2022-12-23T04:30:13.847Z,4.53
2022-12-23T04:33:16.579Z,4.57
2022-12-23T04:36:19.523Z,4.53
2022-12-23T04:39:22.765Z,4.55
2022-12-23T04:42:25.684Z,4.49
2022-12-23T04:45:28.368Z,4.62
2022-12-23T04:48:31.198Z,4.51
2022-12-23T04:51:34.154Z,4.46
2022-12-23T04:54:42.225Z,4.42
2022-12-23T04:57:48.349Z,4.42
2022-12-23T05:01:05.427Z,4.43
2022-12-23T05:04:09.395Z,4.35
2022-12-23T05:07:12.359Z,4.41
2022-12-23T05:10:14.978Z,4.45
2022-12-23T05:13:18.204Z,4.43
2022-12-23T05:16:21.055Z,4.47
2022-12-23T05:19:24.524Z,4.44
2022-12-23T05:22:27.240Z,4.46
2022-12-23T05:25:30.147Z,4.48
2022-12-23T05:28:33.470Z,4.44
2022-12-23T05:31:36.657Z,4.49
2022-12-23T05:34:39.254Z,4.47
2022-12-23T05:37:42.076Z,4.42
2022-12-23T05:40:45.529Z,4.45
2022-12-23T05:43:48.704Z,4.33
2022-12-23T05:46:51.326Z,4.42
2022-12-23T05:49:54.218Z,4.46
2022-12-23T05:52:57.808Z,4.46
2022-12-23T05:56:04.590Z,4.42
2022-12-23T05:59:07.244Z,4.38
2022-12-23T06:02:10.309Z,4.38
2022-12-23T06:05:14.072Z,4.32
2022-12-23T06:08:16.739Z,4.29
2022-12-23T06:11:19.702Z,4.33
2022-12-23T06:14:28.317Z,4.26
2022-12-23T06:17:31.857Z,4.25
2022-12-23T06:20:34.866Z,4.35
2022-12-23T06:23:37.911Z,4.31
2022-12-23T06:26:40.595Z,4.38
2022-12-23T06:29:43.700Z,4.38
2022-12-23T06:32:46.338Z,4.33
2022-12-23T06:35:49.264Z,4.42
2022-12-23T06:38:51.956Z,4.31
2022-12-23T06:41:54.952Z,4.39
2022-12-23T06:44:57.483Z,4.33
2022-12-23T06:48:00.375Z,4.40
2022-12-23T06:51:02.959Z,4.35
2022-12-23T06:54:06.133Z,4.34
2022-12-23T06:57:08.693Z,4.37
2022-12-23T07:00:12.351Z,4.34
2022-12-23T07:03:15.346Z,4.36
2022-12-23T07:06:18.596Z,4.28
2022-12-23T07:09:21.458Z,4.35
2022-12-23T07:12:24.351Z,4.30
2022-12-23T07:15:27.091Z,4.44
2022-12-23T07:18:30.074Z,4.42
2022-12-23T07:21:32.786Z,4.46
2022-12-23T07:24:36.261Z,4.32
2022-12-23T07:27:39.165Z,4.48
2022-12-23T07:30:43.963Z,4.57
2022-12-23T07:33:46.807Z,4.54
2022-12-23T07:36:49.751Z,4.54
2022-12-23T07:39:52.684Z,4.54
2022-12-23T07:42:58.096Z,4.52
2022-12-23T07:46:06.786Z,4.51
2022-12-23T07:49:09.962Z,4.48
2022-12-23T07:52:12.572Z,4.46
2022-12-23T07:55:15.853Z,4.46
2022-12-23T07:58:18.608Z,4.40
2022-12-23T08:01:22.313Z,4.48
2022-12-23T08:04:25.346Z,4.40
2022-12-23T08:07:27.985Z,4.50
2022-12-23T08:10:32.101Z,4.46
2022-12-23T08:13:37.331Z,4.48
2022-12-23T08:16:43.885Z,4.56
2022-12-23T08:19:51.716Z,4.54
2022-12-23T08:22:55.363Z,4.58
2022-12-23T08:26:03.878Z,4.55
2022-12-23T08:29:06.784Z,4.62
2022-12-23T08:32:09.702Z,4.87
2022-12-23T08:35:12.595Z,4.67
2022-12-23T08:38:15.209Z,4.89
2022-12-23T08:41:23.125Z,4.86
2022-12-23T08:44:28.031Z,4.93
2022-12-23T08:47:31.001Z,4.91
2022-12-23T08:50:43.581Z,5.10
2022-12-23T08:53:47.299Z,5.14
2022-12-23T08:56:49.967Z,5.18
2022-12-23T08:59:52.944Z,5.13
2022-12-23T09:02:55.617Z,5.31
2022-12-23T09:05:59.237Z,5.27
2022-12-23T09:09:01.925Z,5.38
2022-12-23T09:12:04.862Z,5.58
2022-12-23T09:15:07.934Z,5.62
2022-12-23T09:18:12.517Z,5.64
2022-12-23T09:21:18.056Z,5.68
2022-12-23T09:24:21.279Z,5.85
2022-12-23T09:27:23.892Z,5.86
2022-12-23T09:30:28.382Z,5.84
2022-12-23T09:33:31.496Z,5.72
2022-12-23T09:36:34.456Z,5.78
2022-12-23T09:39:37.089Z,5.75
2022-12-23T09:42:55.069Z,5.80
2022-12-23T09:46:06.503Z,5.89
2022-12-23T09:49:13.445Z,5.78
2022-12-23T09:52:24.985Z,5.81
2022-12-23T09:55:40.457Z,5.78
2022-12-23T09:59:00.885Z,5.70
2022-12-23T10:02:23.696Z,5.71
2022-12-23T10:05:26.652Z,5.84
2022-12-23T10:08:38.387Z,5.87
2022-12-23T10:11:44.990Z,6.08
2022-12-23T10:14:50.828Z,6.11
2022-12-23T10:17:58.583Z,6.18
2022-12-23T10:21:10.425Z,6.19
2022-12-23T10:24:22.486Z,6.13
2022-12-23T10:27:40.047Z,6.19
2022-12-23T10:31:17.214Z,6.24
2022-12-23T10:34:25.601Z,6.28
2022-12-23T10:37:42.821Z,6.20
2022-12-23T10:41:16.780Z,6.18
2022-12-23T10:44:22.307Z,6.36
2022-12-23T10:47:45.614Z,6.34
2022-12-23T10:51:25.330Z,6.38
2022-12-23T10:54:35.539Z,6.39
2022-12-23T10:57:38.614Z,6.37
2022-12-23T11:00:46.403Z,6.34
2022-12-23T11:04:17.741Z,6.39
2022-12-23T11:07:45.069Z,6.56
2022-12-23T11:10:50.054Z,6.66
2022-12-23T11:13:52.673Z,6.71
2022-12-23T11:16:55.603Z,6.76
2022-12-23T11:20:13.589Z,6.77
2022-12-23T11:23:28.862Z,6.78
2022-12-23T11:26:31.514Z,6.91
2022-12-23T11:29:35.871Z,6.82
2022-12-23T11:32:38.499Z,6.95
2022-12-23T11:35:41.580Z,6.97
2022-12-23T11:38:52.101Z,7.10
2022-12-23T11:42:05.198Z,7.15
2022-12-23T11:45:09.079Z,7.23
2022-12-23T11:48:38.499Z,7.16
2022-12-23T11:51:43.092Z,7.15
2022-12-23T11:54:57.385Z,7.07
2022-12-23T11:58:02.555Z,7.17
2022-12-23T12:01:17.242Z,7.05
2022-12-23T12:04:25.482Z,7.11
2022-12-23T12:07:30.339Z,7.07
2022-12-23T12:10:38.300Z,7.07
2022-12-23T12:13:47.598Z,7.09
2022-12-23T12:17:00.484Z,7.07
2022-12-23T12:20:24.630Z,7.21
2022-12-23T12:23:32.888Z,7.19
2022-12-23T12:26:37.885Z,7.31
2022-12-23T12:29:49.396Z,7.23
2022-12-23T12:33:05.405Z,7.30
2022-12-23T12:36:32.318Z,7.37
2022-12-23T12:40:20.986Z,7.46
2022-12-23T12:43:31.061Z,7.54
2022-12-23T12:46:46.691Z,7.54
2022-12-23T12:50:18.074Z,7.67
2022-12-23T12:53:22.675Z,7.82
2022-12-23T12:56:47.480Z,7.90
2022-12-23T13:00:03.592Z,7.99
2022-12-23T13:03:40.868Z,8.04
2022-12-23T13:07:03.155Z,8.04
2022-12-23T13:10:33.961Z,8.05
2022-12-23T13:13:55.374Z,8.10
2022-12-23T13:17:20.153Z,8.17
2022-12-23T13:20:33.817Z,8.19
2022-12-23T13:24:11.270Z,8.23
2022-12-23T13:27:49.266Z,8.27
2022-12-23T13:31:33.483Z,8.30
2022-12-23T13:34:58.737Z,8.30
2022-12-23T13:38:13.791Z,8.27
2022-12-23T13:41:36.910Z,8.26
2022-12-23T13:44:40.638Z,8.27
2022-12-23T13:48:10.913Z,8.19
2022-12-23T13:51:21.553Z,8.29
2022-12-23T13:54:44.801Z,8.23
2022-12-23T13:58:16.746Z,8.37
2022-12-23T14:01:42.058Z,8.29
2022-12-23T14:04:54.096Z,8.22
2022-12-23T14:08:04.379Z,8.24
2022-12-23T14:11:09.190Z,8.21
2022-12-23T14:14:22.918Z,8.17
2022-12-23T14:17:39.361Z,8.06
2022-12-23T14:20:54.640Z,8.04
2022-12-23T14:24:03.832Z,8.08
2022-12-23T14:27:31.687Z,8.08
2022-12-23T14:30:42.647Z,8.10
2022-12-23T14:33:48.414Z,8.13
2022-12-23T14:37:30.075Z,8.13
2022-12-23T14:40:38.797Z,8.11
2022-12-23T14:43:44.621Z,7.97
2022-12-23T14:46:47.263Z,7.86
2022-12-23T14:49:50.375Z,7.76
2022-12-23T14:53:00.656Z,7.68
2022-12-23T14:56:09.513Z,7.60
2022-12-23T14:59:37.627Z,7.53
2022-12-23T15:02:41.444Z,7.42
2022-12-23T15:05:45.171Z,7.37
2022-12-23T15:08:50.997Z,7.21
2022-12-23T15:11:55.991Z,7.16
2022-12-23T15:15:03.388Z,7.04
2022-12-23T15:18:11.923Z,6.93
2022-12-23T15:21:14.998Z,6.95
2022-12-23T15:24:22.219Z,6.93
2022-12-23T15:27:27.824Z,6.91
2022-12-23T15:30:37.624Z,6.87
2022-12-23T15:37:03.879Z,6.98
2022-12-23T15:40:23.207Z,6.94
2022-12-23T15:43:26.193Z,7.01
2022-12-23T15:46:31.874Z,6.98
2022-12-23T15:49:34.478Z,6.88
2022-12-23T15:52:41.359Z,6.84
2022-12-23T15:55:45.293Z,6.78
2022-12-23T15:58:48.962Z,6.74
2022-12-23T16:01:52.385Z,6.63
2022-12-23T16:05:00.425Z,6.58
2022-12-23T16:08:12.217Z,6.53
2022-12-23T16:11:17.413Z,6.46
2022-12-23T16:14:39.528Z,6.40
2022-12-23T16:17:42.508Z,6.24
2022-12-23T16:21:02.319Z,6.12
2022-12-23T16:24:09.538Z,6.05
2022-12-23T16:27:25.301Z,6.06
2022-12-23T16:30:39.384Z,5.97
2022-12-23T16:33:55.422Z,5.93
2022-12-23T16:36:58.282Z,5.93
2022-12-23T16:40:06.121Z,5.86
2022-12-23T16:43:09.381Z,5.68
2022-12-23T16:46:17.165Z,5.64
2022-12-23T16:49:24.436Z,5.70
2022-12-23T16:52:30.693Z,5.68
2022-12-23T16:55:33.528Z,5.69
2022-12-23T16:58:36.104Z,5.71
2022-12-23T17:01:42.966Z,5.63
2022-12-23T17:04:45.730Z,5.54
2022-12-23T17:07:49.033Z,5.53
2022-12-23T17:10:53.975Z,5.43
2022-12-23T17:14:03.871Z,5.42
2022-12-23T17:17:15.790Z,5.42
2022-12-23T17:20:21.391Z,5.49
2022-12-23T17:23:31.053Z,5.42
2022-12-23T17:26:34.010Z,5.45
2022-12-23T17:29:36.621Z,5.41
2022-12-23T17:32:39.938Z,5.46
2022-12-23T17:35:42.556Z,5.43
2022-12-23T17:38:45.508Z,5.48
2022-12-23T17:41:48.827Z,5.41
2022-12-23T17:44:51.783Z,5.38
2022-12-23T17:47:54.744Z,5.38
2022-12-23T17:50:58.479Z,5.21
2022-12-23T17:54:01.336Z,5.10
2022-12-23T17:57:15.850Z,5.00
2022-12-23T18:00:28.126Z,4.90
2022-12-23T18:03:36.787Z,4.92
2022-12-23T18:06:39.647Z,4.92
2022-12-23T18:09:42.892Z,5.04
2022-12-23T18:12:48.298Z,4.98
2022-12-23T18:15:51.255Z,5.08
2022-12-23T18:18:53.960Z,5.09
2022-12-23T18:21:56.984Z,5.21
2022-12-23T18:24:59.809Z,5.26
2022-12-23T18:28:04.201Z,5.26
2022-12-23T18:31:17.355Z,5.31
2022-12-23T18:34:22.308Z,5.35
2022-12-23T18:37:25.380Z,5.33
2022-12-23T18:40:32.933Z,5.21
2022-12-23T18:43:36.022Z,5.20
2022-12-23T18:46:39.031Z,5.24
2022-12-23T18:49:41.901Z,5.25
2022-12-23T18:52:46.593Z,5.28
2022-12-23T18:55:49.762Z,5.29
2022-12-23T18:58:52.681Z,5.30
2022-12-23T19:01:56.569Z,5.30
2022-12-23T19:04:59.917Z,5.24
2022-12-23T19:08:02.760Z,5.30
2022-12-23T19:11:20.746Z,5.26
2022-12-23T19:14:23.686Z,5.26
2022-12-23T19:17:26.623Z,5.33
2022-12-23T19:20:31.397Z,5.41
2022-12-23T19:23:34.497Z,5.32
2022-12-23T19:26:37.135Z,5.26
2022-12-23T19:29:40.051Z,5.09
2022-12-23T19:32:43.253Z,5.14
2022-12-23T19:35:46.146Z,5.14
2022-12-23T19:38:49.173Z,5.27
2022-12-23T19:41:52.713Z,5.30
2022-12-23T19:44:55.768Z,5.40
2022-12-23T19:47:58.712Z,5.42
2022-12-23T19:51:04.453Z,5.40
2022-12-23T19:54:07.365Z,5.43
2022-12-23T19:57:09.975Z,5.47
2022-12-23T20:00:15.983Z,5.50
2022-12-23T20:03:19.337Z,5.51
2022-12-23T20:06:27.999Z,5.57
2022-12-23T20:09:31.069Z,5.55
2022-12-23T20:12:33.919Z,5.52
2022-12-23T20:15:36.844Z,5.57
2022-12-23T20:18:39.638Z,5.63
2022-12-23T20:21:42.848Z,5.58
2022-12-23T20:24:45.517Z,5.50
2022-12-23T20:27:56.584Z,5.46
2022-12-23T20:31:09.510Z,5.31
2022-12-23T20:34:17.212Z,5.32
2022-12-23T20:37:19.869Z,5.34
2022-12-23T20:40:25.676Z,5.41
2022-12-23T20:43:28.730Z,5.39
2022-12-23T20:46:31.737Z,5.50
2022-12-23T20:49:34.520Z,5.58
2022-12-23T20:52:37.472Z,5.60
2022-12-23T20:55:40.074Z,5.72
2022-12-23T20:58:55.729Z,5.79
2022-12-23T21:01:59.492Z,5.88
2022-12-23T21:05:02.475Z,5.90
2022-12-23T21:08:05.221Z,6.00
2022-12-23T21:11:11.330Z,6.05
2022-12-23T21:14:15.793Z,6.04
2022-12-23T21:17:18.705Z,6.07
2022-12-23T21:20:21.670Z,6.09
2022-12-23T21:23:24.719Z,5.97
2022-12-23T21:26:29.632Z,6.13
2022-12-23T21:29:32.998Z,6.12
2022-12-23T21:32:35.664Z,6.17
2022-12-23T21:35:38.563Z,6.14
2022-12-23T21:38:43.096Z,6.17
2022-12-23T21:41:46.284Z,6.14
2022-12-23T21:44:48.896Z,6.22
2022-12-23T21:47:51.786Z,6.19
2022-12-23T21:51:11.707Z,6.13
2022-12-23T21:54:14.758Z,6.16
2022-12-23T21:57:17.390Z,6.15
2022-12-23T22:00:24.356Z,6.17
2022-12-23T22:03:27.921Z,6.13
2022-12-23T22:06:33.203Z,6.20
2022-12-23T22:09:36.149Z,6.18
2022-12-23T22:12:39.637Z,6.15
2022-12-23T22:15:43.042Z,6.13
2022-12-23T22:18:46.684Z,6.05
2022-12-23T22:21:49.661Z,6.09
2022-12-23T22:24:52.353Z,6.09
2022-12-23T22:27:55.294Z,6.11
2022-12-23T22:31:05.755Z,6.14
2022-12-23T22:34:13.575Z,6.09
2022-12-23T22:37:16.152Z,6.06
2022-12-23T22:40:19.407Z,6.04
2022-12-23T22:43:22.138Z,6.06
2022-12-23T22:46:25.905Z,6.11
2022-12-23T22:49:28.931Z,6.12
2022-12-23T22:52:31.799Z,6.20
2022-12-23T22:55:34.697Z,6.14
2022-12-23T22:58:37.641Z,6.22
2022-12-23T23:01:40.342Z,6.13
2022-12-23T23:04:43.254Z,6.09
2022-12-23T23:07:45.882Z,6.06
2022-12-23T23:10:50.177Z,6.09
2022-12-23T23:13:54.044Z,6.12
2022-12-23T23:16:57.073Z,6.13
2022-12-23T23:20:00.445Z,6.14
2022-12-23T23:23:04.003Z,6.28
2022-12-23T23:26:09.216Z,6.31
2022-12-23T23:29:12.165Z,6.32
2022-12-23T23:32:15.074Z,6.38
2022-12-23T23:35:18.059Z,6.36
2022-12-23T23:38:20.748Z,6.44
2022-12-23T23:41:24.329Z,6.52
2022-12-23T23:44:27.081Z,6.59
2022-12-23T23:47:34.555Z,6.60
2022-12-23T23:50:37.356Z,6.58
2022-12-23T23:53:40.833Z,6.60
2022-12-23T23:56:43.639Z,6.54
2022-12-23T23:59:46.641Z,6.63
